Terminal Aerodrome Forecast
Issued by NWS St Louis, MO

Home | Current Version | Previous Version | Text Only | Print | Product List | Glossary On
Versions: 1 2 3 4 5 6 7 8 9 10 11 12 13 14 15 16 17 18 19 20 21 22 23 24 25 26 27 28 29 30
000
FTUS43 KLSX 270800 AAA
TAFSTL
TAF AMD
KSTL 270856Z 2709/2812 34012KT P6SM OVC012
      TEMPO 2709/2711 5SM BR
     FM271600 31010KT P6SM OVC025
     FM272100 31009KT P6SM SCT025 BKN250
     FM280300 VRB04KT P6SM BKN100=

USA.gov is the U.S. government's official web portal to all federal, state and local government web resources and services.